sensor_id;sensor_type;location;lat;lon;timestamp;pressure;altitude;pressure_sealevel;temperature
68743;BMP180;55725;42.758;26.702;2022-09-12T00:00:45;98814.00;;;16.40
68743;BMP180;55725;42.758;26.702;2022-09-12T00:02:26;98814.00;;;16.30
68743;BMP180;55725;42.758;26.702;2022-09-12T00:04:06;98822.00;;;16.30
68743;BMP180;55725;42.758;26.702;2022-09-12T00:05:46;98821.00;;;16.20
68743;BMP180;55725;42.758;26.702;2022-09-12T00:07:27;98811.00;;;16.20
68743;BMP180;55725;42.758;26.702;2022-09-12T00:09:08;98820.00;;;16.10
68743;BMP180;55725;42.758;26.702;2022-09-12T00:10:49;98809.00;;;16.20
68743;BMP180;55725;42.758;26.702;2022-09-12T00:12:29;98800.00;;;16.20
68743;BMP180;55725;42.758;26.702;2022-09-12T00:14:10;98800.00;;;16.10
68743;BMP180;55725;42.758;26.702;2022-09-12T00:15:51;98805.00;;;16.20
68743;BMP180;55725;42.758;26.702;2022-09-12T00:17:35;98803.00;;;16.10
68743;BMP180;55725;42.758;26.702;2022-09-12T00:19:15;98806.00;;;16.10
68743;BMP180;55725;42.758;26.702;2022-09-12T00:20:56;98801.00;;;16.00
68743;BMP180;55725;42.758;26.702;2022-09-12T00:22:36;98801.00;;;16.00
68743;BMP180;55725;42.758;26.702;2022-09-12T00:24:16;98800.00;;;16.10
68743;BMP180;55725;42.758;26.702;2022-09-12T00:25:57;98804.00;;;16.00
68743;BMP180;55725;42.758;26.702;2022-09-12T00:27:37;98799.00;;;16.00
68743;BMP180;55725;42.758;26.702;2022-09-12T00:29:19;98800.00;;;16.00
68743;BMP180;55725;42.758;26.702;2022-09-12T00:31:02;98795.00;;;15.90
68743;BMP180;55725;42.758;26.702;2022-09-12T00:32:43;98784.00;;;16.00
68743;BMP180;55725;42.758;26.702;2022-09-12T00:34:23;98793.00;;;16.00
68743;BMP180;55725;42.758;26.702;2022-09-12T00:36:05;98779.00;;;16.00
68743;BMP180;55725;42.758;26.702;2022-09-12T00:37:45;98784.00;;;16.10
68743;BMP180;55725;42.758;26.702;2022-09-12T00:39:26;98778.00;;;16.10
68743;BMP180;55725;42.758;26.702;2022-09-12T00:41:07;98780.00;;;16.10
68743;BMP180;55725;42.758;26.702;2022-09-12T00:42:47;98777.00;;;16.10
68743;BMP180;55725;42.758;26.702;2022-09-12T00:47:51;98767.00;;;15.90
68743;BMP180;55725;42.758;26.702;2022-09-12T00:49:33;98769.00;;;16.20
68743;BMP180;55725;42.758;26.702;2022-09-12T00:51:18;98763.00;;;16.10
68743;BMP180;55725;42.758;26.702;2022-09-12T00:53:03;98763.00;;;16.00
68743;BMP180;55725;42.758;26.702;2022-09-12T00:54:46;98764.00;;;16.00
68743;BMP180;55725;42.758;26.702;2022-09-12T00:56:29;98763.00;;;16.00
68743;BMP180;55725;42.758;26.702;2022-09-12T00:58:21;98756.00;;;16.00
68743;BMP180;55725;42.758;26.702;2022-09-12T01:00:21;98757.00;;;16.10
68743;BMP180;55725;42.758;26.702;2022-09-12T01:02:02;98758.00;;;16.10
68743;BMP180;55725;42.758;26.702;2022-09-12T01:03:42;98773.00;;;16.20
68743;BMP180;55725;42.758;26.702;2022-09-12T01:05:23;98771.00;;;16.30
68743;BMP180;55725;42.758;26.702;2022-09-12T01:07:04;98784.00;;;16.30
68743;BMP180;55725;42.758;26.702;2022-09-12T01:08:45;98781.00;;;16.50
68743;BMP180;55725;42.758;26.702;2022-09-12T01:10:26;98771.00;;;16.60
68743;BMP180;55725;42.758;26.702;2022-09-12T01:12:06;98769.00;;;17.00
68743;BMP180;55725;42.758;26.702;2022-09-12T01:13:47;98764.00;;;16.90
68743;BMP180;55725;42.758;26.702;2022-09-12T01:15:28;98763.00;;;16.90
68743;BMP180;55725;42.758;26.702;2022-09-12T01:17:14;98767.00;;;17.00
68743;BMP180;55725;42.758;26.702;2022-09-12T01:28:28;98764.00;;;17.00
68743;BMP180;55725;42.758;26.702;2022-09-12T01:30:30;98762.00;;;17.20
68743;BMP180;55725;42.758;26.702;2022-09-12T01:32:30;98767.00;;;17.20
68743;BMP180;55725;42.758;26.702;2022-09-12T01:36:02;98767.00;;;16.70
68743;BMP180;55725;42.758;26.702;2022-09-12T01:45:10;98756.00;;;17.10
68743;BMP180;55725;42.758;26.702;2022-09-12T01:47:04;98746.00;;;16.90
68743;BMP180;55725;42.758;26.702;2022-09-12T01:48:50;98750.00;;;16.70
68743;BMP180;55725;42.758;26.702;2022-09-12T01:50:37;98745.00;;;16.60
68743;BMP180;55725;42.758;26.702;2022-09-12T01:52:24;98743.00;;;16.40
68743;BMP180;55725;42.758;26.702;2022-09-12T01:54:11;98744.00;;;16.50
68743;BMP180;55725;42.758;26.702;2022-09-12T01:56:04;98744.00;;;16.60
68743;BMP180;55725;42.758;26.702;2022-09-12T01:57:50;98729.00;;;16.50
68743;BMP180;55725;42.758;26.702;2022-09-12T01:59:36;98726.00;;;16.60
68743;BMP180;55725;42.758;26.702;2022-09-12T02:01:23;98717.00;;;16.60
68743;BMP180;55725;42.758;26.702;2022-09-12T02:03:10;98708.00;;;16.40
68743;BMP180;55725;42.758;26.702;2022-09-12T02:04:53;98706.00;;;16.40
68743;BMP180;55725;42.758;26.702;2022-09-12T02:07:00;98696.00;;;16.30
68743;BMP180;55725;42.758;26.702;2022-09-12T02:08:43;98699.00;;;16.30
68743;BMP180;55725;42.758;26.702;2022-09-12T02:10:25;98692.00;;;16.20
68743;BMP180;55725;42.758;26.702;2022-09-12T02:12:09;98686.00;;;16.10
68743;BMP180;55725;42.758;26.702;2022-09-12T02:13:58;98691.00;;;16.20
68743;BMP180;55725;42.758;26.702;2022-09-12T02:15:41;98684.00;;;16.20
68743;BMP180;55725;42.758;26.702;2022-09-12T02:17:23;98680.00;;;16.20
68743;BMP180;55725;42.758;26.702;2022-09-12T02:19:11;98678.00;;;16.20
68743;BMP180;55725;42.758;26.702;2022-09-12T02:20:53;98671.00;;;16.20
68743;BMP180;55725;42.758;26.702;2022-09-12T02:22:36;98677.00;;;16.20
68743;BMP180;55725;42.758;26.702;2022-09-12T02:24:17;98667.00;;;16.20
68743;BMP180;55725;42.758;26.702;2022-09-12T02:26:01;98676.00;;;16.30
68743;BMP180;55725;42.758;26.702;2022-09-12T02:27:44;98681.00;;;16.30
68743;BMP180;55725;42.758;26.702;2022-09-12T02:29:26;98693.00;;;16.20
68743;BMP180;55725;42.758;26.702;2022-09-12T02:33:05;98692.00;;;16.30
68743;BMP180;55725;42.758;26.702;2022-09-12T02:38:16;98711.00;;;16.20
68743;BMP180;55725;42.758;26.702;2022-09-12T02:39:58;98719.00;;;16.20
68743;BMP180;55725;42.758;26.702;2022-09-12T02:41:39;98716.00;;;16.20
68743;BMP180;55725;42.758;26.702;2022-09-12T02:43:19;98724.00;;;16.20
68743;BMP180;55725;42.758;26.702;2022-09-12T02:44:59;98719.00;;;16.30
68743;BMP180;55725;42.758;26.702;2022-09-12T02:46:45;98717.00;;;16.30
68743;BMP180;55725;42.758;26.702;2022-09-12T02:48:27;98716.00;;;16.60
68743;BMP180;55725;42.758;26.702;2022-09-12T02:50:09;98710.00;;;17.40
68743;BMP180;55725;42.758;26.702;2022-09-12T02:51:50;98708.00;;;17.60
68743;BMP180;55725;42.758;26.702;2022-09-12T02:53:30;98718.00;;;17.40
68743;BMP180;55725;42.758;26.702;2022-09-12T02:55:12;98716.00;;;16.90
68743;BMP180;55725;42.758;26.702;2022-09-12T02:56:53;98707.00;;;16.90
68743;BMP180;55725;42.758;26.702;2022-09-12T02:58:34;98706.00;;;16.40
68743;BMP180;55725;42.758;26.702;2022-09-12T03:00:14;98705.00;;;16.80
68743;BMP180;55725;42.758;26.702;2022-09-12T03:03:43;98691.00;;;16.60
68743;BMP180;55725;42.758;26.702;2022-09-12T03:05:33;98690.00;;;16.40
68743;BMP180;55725;42.758;26.702;2022-09-12T03:08:59;98710.00;;;16.50
68743;BMP180;55725;42.758;26.702;2022-09-12T03:13:16;98698.00;;;16.40
68743;BMP180;55725;42.758;26.702;2022-09-12T03:14:51;98695.00;;;16.40
68743;BMP180;55725;42.758;26.702;2022-09-12T03:16:45;98690.00;;;16.40
68743;BMP180;55725;42.758;26.702;2022-09-12T03:20:39;98698.00;;;16.30
68743;BMP180;55725;42.758;26.702;2022-09-12T03:24:24;98690.00;;;16.20
68743;BMP180;55725;42.758;26.702;2022-09-12T03:26:09;98691.00;;;16.20
68743;BMP180;55725;42.758;26.702;2022-09-12T03:28:11;98685.00;;;16.20
68743;BMP180;55725;42.758;26.702;2022-09-12T03:29:52;98685.00;;;16.20
68743;BMP180;55725;42.758;26.702;2022-09-12T03:31:32;98696.00;;;16.20
68743;BMP180;55725;42.758;26.702;2022-09-12T03:33:14;98691.00;;;16.20
68743;BMP180;55725;42.758;26.702;2022-09-12T03:34:54;98695.00;;;16.20
68743;BMP180;55725;42.758;26.702;2022-09-12T03:36:34;98688.00;;;16.30
68743;BMP180;55725;42.758;26.702;2022-09-12T03:38:15;98686.00;;;16.30
68743;BMP180;55725;42.758;26.702;2022-09-12T03:39:55;98682.00;;;16.20
68743;BMP180;55725;42.758;26.702;2022-09-12T03:41:36;98685.00;;;16.20
68743;BMP180;55725;42.758;26.702;2022-09-12T03:43:16;98694.00;;;16.30
68743;BMP180;55725;42.758;26.702;2022-09-12T03:44:56;98681.00;;;16.40
68743;BMP180;55725;42.758;26.702;2022-09-12T03:46:37;98669.00;;;16.30
68743;BMP180;55725;42.758;26.702;2022-09-12T03:48:17;98670.00;;;16.40
68743;BMP180;55725;42.758;26.702;2022-09-12T03:49:57;98673.00;;;16.40
68743;BMP180;55725;42.758;26.702;2022-09-12T03:51:38;98678.00;;;16.40
68743;BMP180;55725;42.758;26.702;2022-09-12T03:53:18;98683.00;;;16.30
68743;BMP180;55725;42.758;26.702;2022-09-12T03:54:59;98676.00;;;16.40
68743;BMP180;55725;42.758;26.702;2022-09-12T03:56:39;98680.00;;;16.30
68743;BMP180;55725;42.758;26.702;2022-09-12T03:58:20;98684.00;;;16.40
68743;BMP180;55725;42.758;26.702;2022-09-12T04:00:00;98676.00;;;16.30
68743;BMP180;55725;42.758;26.702;2022-09-12T04:01:41;98678.00;;;16.30
68743;BMP180;55725;42.758;26.702;2022-09-12T04:03:21;98685.00;;;16.30
68743;BMP180;55725;42.758;26.702;2022-09-12T04:05:02;98683.00;;;16.30
68743;BMP180;55725;42.758;26.702;2022-09-12T04:06:42;98686.00;;;16.30
68743;BMP180;55725;42.758;26.702;2022-09-12T04:08:23;98684.00;;;16.40
68743;BMP180;55725;42.758;26.702;2022-09-12T04:10:03;98687.00;;;16.40
68743;BMP180;55725;42.758;26.702;2022-09-12T04:11:44;98691.00;;;16.40
68743;BMP180;55725;42.758;26.702;2022-09-12T04:13:24;98694.00;;;16.40
68743;BMP180;55725;42.758;26.702;2022-09-12T04:15:05;98695.00;;;16.50
68743;BMP180;55725;42.758;26.702;2022-09-12T04:16:46;98691.00;;;16.20
68743;BMP180;55725;42.758;26.702;2022-09-12T04:18:26;98685.00;;;16.40
68743;BMP180;55725;42.758;26.702;2022-09-12T04:20:07;98692.00;;;16.30
68743;BMP180;55725;42.758;26.702;2022-09-12T04:21:47;98694.00;;;16.40
68743;BMP180;55725;42.758;26.702;2022-09-12T04:23:28;98688.00;;;16.40
68743;BMP180;55725;42.758;26.702;2022-09-12T04:25:08;98697.00;;;16.50
68743;BMP180;55725;42.758;26.702;2022-09-12T04:26:48;98689.00;;;16.20
68743;BMP180;55725;42.758;26.702;2022-09-12T04:28:29;98687.00;;;16.40
68743;BMP180;55725;42.758;26.702;2022-09-12T04:30:09;98702.00;;;16.40
68743;BMP180;55725;42.758;26.702;2022-09-12T04:31:50;98700.00;;;16.30
68743;BMP180;55725;42.758;26.702;2022-09-12T04:33:30;98693.00;;;16.20
68743;BMP180;55725;42.758;26.702;2022-09-12T04:35:10;98697.00;;;16.20
68743;BMP180;55725;42.758;26.702;2022-09-12T04:36:51;98693.00;;;16.50
68743;BMP180;55725;42.758;26.702;2022-09-12T04:38:32;98698.00;;;16.30
68743;BMP180;55725;42.758;26.702;2022-09-12T04:40:13;98700.00;;;16.40
68743;BMP180;55725;42.758;26.702;2022-09-12T04:41:53;98697.00;;;16.30
68743;BMP180;55725;42.758;26.702;2022-09-12T04:43:34;98700.00;;;16.50
68743;BMP180;55725;42.758;26.702;2022-09-12T04:45:14;98694.00;;;16.50
68743;BMP180;55725;42.758;26.702;2022-09-12T04:46:55;98696.00;;;16.50
68743;BMP180;55725;42.758;26.702;2022-09-12T04:48:36;98702.00;;;16.50
68743;BMP180;55725;42.758;26.702;2022-09-12T04:50:16;98704.00;;;16.50
68743;BMP180;55725;42.758;26.702;2022-09-12T04:51:57;98707.00;;;16.50
68743;BMP180;55725;42.758;26.702;2022-09-12T04:53:37;98701.00;;;16.50
68743;BMP180;55725;42.758;26.702;2022-09-12T04:55:18;98694.00;;;16.60
68743;BMP180;55725;42.758;26.702;2022-09-12T04:56:58;98684.00;;;16.70
68743;BMP180;55725;42.758;26.702;2022-09-12T04:58:39;98686.00;;;16.90
68743;BMP180;55725;42.758;26.702;2022-09-12T05:00:19;98680.00;;;17.10
68743;BMP180;55725;42.758;26.702;2022-09-12T05:02:00;98670.00;;;17.20
68743;BMP180;55725;42.758;26.702;2022-09-12T05:03:41;98665.00;;;17.20
68743;BMP180;55725;42.758;26.702;2022-09-12T05:05:24;98666.00;;;17.30
68743;BMP180;55725;42.758;26.702;2022-09-12T05:07:04;98656.00;;;17.40
68743;BMP180;55725;42.758;26.702;2022-09-12T05:08:45;98664.00;;;17.50
68743;BMP180;55725;42.758;26.702;2022-09-12T05:10:26;98651.00;;;17.50
68743;BMP180;55725;42.758;26.702;2022-09-12T05:12:07;98665.00;;;17.40
68743;BMP180;55725;42.758;26.702;2022-09-12T05:13:48;98663.00;;;17.20
68743;BMP180;55725;42.758;26.702;2022-09-12T05:15:28;98653.00;;;17.50
68743;BMP180;55725;42.758;26.702;2022-09-12T05:17:09;98672.00;;;17.30
68743;BMP180;55725;42.758;26.702;2022-09-12T05:18:49;98674.00;;;17.30
68743;BMP180;55725;42.758;26.702;2022-09-12T05:20:30;98662.00;;;17.30
68743;BMP180;55725;42.758;26.702;2022-09-12T05:22:10;98646.00;;;17.60
68743;BMP180;55725;42.758;26.702;2022-09-12T05:23:51;98645.00;;;17.90
68743;BMP180;55725;42.758;26.702;2022-09-12T05:25:31;98657.00;;;17.70
68743;BMP180;55725;42.758;26.702;2022-09-12T05:27:12;98658.00;;;17.90
68743;BMP180;55725;42.758;26.702;2022-09-12T05:28:52;98660.00;;;17.80
68743;BMP180;55725;42.758;26.702;2022-09-12T05:30:33;98676.00;;;17.70
68743;BMP180;55725;42.758;26.702;2022-09-12T05:32:13;98651.00;;;17.90
68743;BMP180;55725;42.758;26.702;2022-09-12T05:33:54;98656.00;;;17.90
68743;BMP180;55725;42.758;26.702;2022-09-12T05:35:34;98634.00;;;17.90
68743;BMP180;55725;42.758;26.702;2022-09-12T05:37:17;98642.00;;;18.10
68743;BMP180;55725;42.758;26.702;2022-09-12T05:39:00;98636.00;;;18.30
68743;BMP180;55725;42.758;26.702;2022-09-12T05:40:40;98641.00;;;18.30
68743;BMP180;55725;42.758;26.702;2022-09-12T05:42:21;98634.00;;;18.30
68743;BMP180;55725;42.758;26.702;2022-09-12T05:44:03;98640.00;;;18.40
68743;BMP180;55725;42.758;26.702;2022-09-12T05:45:44;98630.00;;;18.40
68743;BMP180;55725;42.758;26.702;2022-09-12T05:47:24;98619.00;;;18.50
68743;BMP180;55725;42.758;26.702;2022-09-12T05:49:06;98626.00;;;18.40
68743;BMP180;55725;42.758;26.702;2022-09-12T05:50:46;98627.00;;;18.60
68743;BMP180;55725;42.758;26.702;2022-09-12T05:52:27;98637.00;;;18.70
68743;BMP180;55725;42.758;26.702;2022-09-12T05:54:08;98614.00;;;18.80
68743;BMP180;55725;42.758;26.702;2022-09-12T05:55:48;98605.00;;;18.80
68743;BMP180;55725;42.758;26.702;2022-09-12T05:57:29;98611.00;;;18.90
68743;BMP180;55725;42.758;26.702;2022-09-12T05:59:13;98613.00;;;18.80
68743;BMP180;55725;42.758;26.702;2022-09-12T06:00:54;98627.00;;;19.00
68743;BMP180;55725;42.758;26.702;2022-09-12T06:02:35;98609.00;;;18.90
68743;BMP180;55725;42.758;26.702;2022-09-12T06:04:15;98616.00;;;18.90
68743;BMP180;55725;42.758;26.702;2022-09-12T06:05:56;98612.00;;;18.90
68743;BMP180;55725;42.758;26.702;2022-09-12T06:07:37;98617.00;;;19.00
68743;BMP180;55725;42.758;26.702;2022-09-12T06:09:17;98611.00;;;19.20
68743;BMP180;55725;42.758;26.702;2022-09-12T06:11:01;98640.00;;;19.20
68743;BMP180;55725;42.758;26.702;2022-09-12T06:12:41;98621.00;;;19.10
68743;BMP180;55725;42.758;26.702;2022-09-12T06:14:22;98614.00;;;19.10
68743;BMP180;55725;42.758;26.702;2022-09-12T06:16:03;98622.00;;;18.80
68743;BMP180;55725;42.758;26.702;2022-09-12T06:17:44;98628.00;;;19.00
68743;BMP180;55725;42.758;26.702;2022-09-12T06:19:27;98621.00;;;18.90
68743;BMP180;55725;42.758;26.702;2022-09-12T06:21:09;98642.00;;;19.30
68743;BMP180;55725;42.758;26.702;2022-09-12T06:22:52;98646.00;;;18.90
68743;BMP180;55725;42.758;26.702;2022-09-12T06:24:32;98680.00;;;18.70
68743;BMP180;55725;42.758;26.702;2022-09-12T06:26:14;98668.00;;;18.50
68743;BMP180;55725;42.758;26.702;2022-09-12T06:27:55;98657.00;;;18.60
68743;BMP180;55725;42.758;26.702;2022-09-12T06:29:35;98681.00;;;18.40
68743;BMP180;55725;42.758;26.702;2022-09-12T06:31:17;98627.00;;;18.90
68743;BMP180;55725;42.758;26.702;2022-09-12T06:32:57;98626.00;;;19.10
68743;BMP180;55725;42.758;26.702;2022-09-12T06:34:38;98655.00;;;19.70
68743;BMP180;55725;42.758;26.702;2022-09-12T06:36:19;98628.00;;;20.10
68743;BMP180;55725;42.758;26.702;2022-09-12T06:38:00;98634.00;;;20.40
68743;BMP180;55725;42.758;26.702;2022-09-12T06:39:40;98628.00;;;20.60
68743;BMP180;55725;42.758;26.702;2022-09-12T06:41:21;98633.00;;;20.50
68743;BMP180;55725;42.758;26.702;2022-09-12T06:43:01;98636.00;;;20.70
68743;BMP180;55725;42.758;26.702;2022-09-12T06:44:42;98623.00;;;20.20
68743;BMP180;55725;42.758;26.702;2022-09-12T06:46:23;98628.00;;;20.80
68743;BMP180;55725;42.758;26.702;2022-09-12T06:48:04;98633.00;;;20.60
68743;BMP180;55725;42.758;26.702;2022-09-12T06:49:44;98637.00;;;20.40
68743;BMP180;55725;42.758;26.702;2022-09-12T06:51:25;98690.00;;;20.00
68743;BMP180;55725;42.758;26.702;2022-09-12T06:53:06;98694.00;;;19.50
68743;BMP180;55725;42.758;26.702;2022-09-12T06:54:46;98694.00;;;19.30
68743;BMP180;55725;42.758;26.702;2022-09-12T06:56:27;98694.00;;;19.10
68743;BMP180;55725;42.758;26.702;2022-09-12T06:58:07;98689.00;;;19.20
68743;BMP180;55725;42.758;26.702;2022-09-12T06:59:48;98697.00;;;19.20
68743;BMP180;55725;42.758;26.702;2022-09-12T07:01:29;98684.00;;;19.10
68743;BMP180;55725;42.758;26.702;2022-09-12T07:03:10;98684.00;;;19.20
68743;BMP180;55725;42.758;26.702;2022-09-12T07:04:50;98677.00;;;19.20
68743;BMP180;55725;42.758;26.702;2022-09-12T07:06:34;98683.00;;;19.20
68743;BMP180;55725;42.758;26.702;2022-09-12T07:08:15;98682.00;;;19.20
68743;BMP180;55725;42.758;26.702;2022-09-12T07:09:55;98690.00;;;19.40
68743;BMP180;55725;42.758;26.702;2022-09-12T07:11:37;98693.00;;;19.30
68743;BMP180;55725;42.758;26.702;2022-09-12T07:13:18;98671.00;;;19.20
68743;BMP180;55725;42.758;26.702;2022-09-12T07:14:58;98692.00;;;19.30
68743;BMP180;55725;42.758;26.702;2022-09-12T07:16:40;98680.00;;;19.50
68743;BMP180;55725;42.758;26.702;2022-09-12T07:18:20;98687.00;;;19.50
68743;BMP180;55725;42.758;26.702;2022-09-12T07:20:01;98680.00;;;19.60
68743;BMP180;55725;42.758;26.702;2022-09-12T07:21:41;98670.00;;;20.40
68743;BMP180;55725;42.758;26.702;2022-09-12T07:23:22;98682.00;;;20.40
68743;BMP180;55725;42.758;26.702;2022-09-12T07:25:02;98656.00;;;20.70
68743;BMP180;55725;42.758;26.702;2022-09-12T07:26:44;98627.00;;;20.80
68743;BMP180;55725;42.758;26.702;2022-09-12T07:28:25;98627.00;;;21.60
68743;BMP180;55725;42.758;26.702;2022-09-12T07:30:06;98658.00;;;21.40
68743;BMP180;55725;42.758;26.702;2022-09-12T07:31:46;98655.00;;;22.20
68743;BMP180;55725;42.758;26.702;2022-09-12T07:33:27;98696.00;;;21.40
68743;BMP180;55725;42.758;26.702;2022-09-12T07:35:07;98623.00;;;21.30
68743;BMP180;55725;42.758;26.702;2022-09-12T07:36:47;98620.00;;;22.20
68743;BMP180;55725;42.758;26.702;2022-09-12T07:38:28;98626.00;;;22.80
68743;BMP180;55725;42.758;26.702;2022-09-12T07:40:08;98633.00;;;22.70
68743;BMP180;55725;42.758;26.702;2022-09-12T07:41:49;98705.00;;;21.50
68743;BMP180;55725;42.758;26.702;2022-09-12T07:43:29;98656.00;;;22.00
68743;BMP180;55725;42.758;26.702;2022-09-12T07:45:10;98693.00;;;21.40
68743;BMP180;55725;42.758;26.702;2022-09-12T07:46:50;98627.00;;;22.20
68743;BMP180;55725;42.758;26.702;2022-09-12T07:48:31;98625.00;;;23.30
68743;BMP180;55725;42.758;26.702;2022-09-12T07:50:11;98698.00;;;22.70
68743;BMP180;55725;42.758;26.702;2022-09-12T07:51:51;98701.00;;;21.80
68743;BMP180;55725;42.758;26.702;2022-09-12T07:53:33;98710.00;;;21.20
68743;BMP180;55725;42.758;26.702;2022-09-12T07:55:14;98713.00;;;21.00
68743;BMP180;55725;42.758;26.702;2022-09-12T07:56:54;98700.00;;;21.00
68743;BMP180;55725;42.758;26.702;2022-09-12T07:58:35;98703.00;;;21.00
68743;BMP180;55725;42.758;26.702;2022-09-12T08:00:16;98679.00;;;21.30
68743;BMP180;55725;42.758;26.702;2022-09-12T08:01:56;98701.00;;;21.70
68743;BMP180;55725;42.758;26.702;2022-09-12T08:03:40;98708.00;;;21.60
68743;BMP180;55725;42.758;26.702;2022-09-12T08:05:21;98703.00;;;21.30
68743;BMP180;55725;42.758;26.702;2022-09-12T08:07:02;98713.00;;;21.40
68743;BMP180;55725;42.758;26.702;2022-09-12T08:08:42;98637.00;;;21.50
68743;BMP180;55725;42.758;26.702;2022-09-12T08:10:22;98690.00;;;21.90
68743;BMP180;55725;42.758;26.702;2022-09-12T08:12:03;98611.00;;;22.90
68743;BMP180;55725;42.758;26.702;2022-09-12T08:13:44;98674.00;;;22.80
68743;BMP180;55725;42.758;26.702;2022-09-12T08:15:31;98626.00;;;23.10
68743;BMP180;55725;42.758;26.702;2022-09-12T08:17:11;98703.00;;;22.40
68743;BMP180;55725;42.758;26.702;2022-09-12T08:18:51;98671.00;;;22.60
68743;BMP180;55725;42.758;26.702;2022-09-12T08:20:32;98596.00;;;22.60
68743;BMP180;55725;42.758;26.702;2022-09-12T08:22:12;98628.00;;;22.90
68743;BMP180;55725;42.758;26.702;2022-09-12T08:23:53;98678.00;;;23.00
68743;BMP180;55725;42.758;26.702;2022-09-12T08:25:34;98688.00;;;22.50
68743;BMP180;55725;42.758;26.702;2022-09-12T08:27:14;98701.00;;;21.90
68743;BMP180;55725;42.758;26.702;2022-09-12T08:28:55;98703.00;;;21.70
68743;BMP180;55725;42.758;26.702;2022-09-12T08:30:35;98682.00;;;21.60
68743;BMP180;55725;42.758;26.702;2022-09-12T08:32:15;98619.00;;;21.80
68743;BMP180;55725;42.758;26.702;2022-09-12T08:33:57;98684.00;;;22.70
68743;BMP180;55725;42.758;26.702;2022-09-12T08:35:38;98603.00;;;23.10
68743;BMP180;55725;42.758;26.702;2022-09-12T08:37:18;98596.00;;;24.10
68743;BMP180;55725;42.758;26.702;2022-09-12T08:39:00;98612.00;;;24.30
68743;BMP180;55725;42.758;26.702;2022-09-12T08:40:43;98601.00;;;23.90
68743;BMP180;55725;42.758;26.702;2022-09-12T08:42:51;98636.00;;;23.40
68743;BMP180;55725;42.758;26.702;2022-09-12T08:48:32;98607.00;;;24.30
68743;BMP180;55725;42.758;26.702;2022-09-12T08:50:14;98611.00;;;24.50
68743;BMP180;55725;42.758;26.702;2022-09-12T08:51:56;98606.00;;;24.60
68743;BMP180;55725;42.758;26.702;2022-09-12T08:53:37;98603.00;;;24.20
68743;BMP180;55725;42.758;26.702;2022-09-12T08:57:02;98599.00;;;24.30
68743;BMP180;55725;42.758;26.702;2022-09-12T08:58:43;98606.00;;;24.10
68743;BMP180;55725;42.758;26.702;2022-09-12T09:00:24;98607.00;;;23.80
68743;BMP180;55725;42.758;26.702;2022-09-12T09:11:19;98598.00;;;24.50
68743;BMP180;55725;42.758;26.702;2022-09-12T09:13:05;98590.00;;;24.60
68743;BMP180;55725;42.758;26.702;2022-09-12T09:16:48;98595.00;;;24.60
68743;BMP180;55725;42.758;26.702;2022-09-12T09:18:30;98589.00;;;25.00
68743;BMP180;55725;42.758;26.702;2022-09-12T09:20:18;98595.00;;;24.70
68743;BMP180;55725;42.758;26.702;2022-09-12T09:22:03;98583.00;;;25.30
68743;BMP180;55725;42.758;26.702;2022-09-12T09:23:45;98590.00;;;25.20
68743;BMP180;55725;42.758;26.702;2022-09-12T09:25:36;98591.00;;;25.10
68743;BMP180;55725;42.758;26.702;2022-09-12T09:29:12;98581.00;;;25.30
68743;BMP180;55725;42.758;26.702;2022-09-12T09:30:54;98580.00;;;25.60
68743;BMP180;55725;42.758;26.702;2022-09-12T09:32:35;98579.00;;;26.20
68743;BMP180;55725;42.758;26.702;2022-09-12T09:43:19;98586.00;;;25.20
68743;BMP180;55725;42.758;26.702;2022-09-12T09:45:02;98584.00;;;26.10
68743;BMP180;55725;42.758;26.702;2022-09-12T09:46:43;98585.00;;;26.30
68743;BMP180;55725;42.758;26.702;2022-09-12T09:48:30;98571.00;;;25.70
68743;BMP180;55725;42.758;26.702;2022-09-12T09:50:13;98576.00;;;25.70
68743;BMP180;55725;42.758;26.702;2022-09-12T09:51:53;98579.00;;;25.50
68743;BMP180;55725;42.758;26.702;2022-09-12T09:55:27;98583.00;;;25.70
68743;BMP180;55725;42.758;26.702;2022-09-12T10:00:50;98586.00;;;25.70
68743;BMP180;55725;42.758;26.702;2022-09-12T10:02:37;98577.00;;;25.40
68743;BMP180;55725;42.758;26.702;2022-09-12T10:04:18;98570.00;;;26.20
68743;BMP180;55725;42.758;26.702;2022-09-12T10:06:00;98585.00;;;25.70
68743;BMP180;55725;42.758;26.702;2022-09-12T10:07:48;98582.00;;;25.90
68743;BMP180;55725;42.758;26.702;2022-09-12T10:09:32;98593.00;;;25.70
68743;BMP180;55725;42.758;26.702;2022-09-12T10:11:20;98583.00;;;25.60
68743;BMP180;55725;42.758;26.702;2022-09-12T10:13:05;98588.00;;;25.90
68743;BMP180;55725;42.758;26.702;2022-09-12T10:14:58;98590.00;;;26.00
68743;BMP180;55725;42.758;26.702;2022-09-12T10:16:50;98586.00;;;26.30
68743;BMP180;55725;42.758;26.702;2022-09-12T10:18:34;98586.00;;;26.50
68743;BMP180;55725;42.758;26.702;2022-09-12T10:20:28;98593.00;;;26.30
68743;BMP180;55725;42.758;26.702;2022-09-12T10:22:13;98592.00;;;26.10
68743;BMP180;55725;42.758;26.702;2022-09-12T10:25:54;98590.00;;;26.90
68743;BMP180;55725;42.758;26.702;2022-09-12T10:27:35;98600.00;;;27.20
68743;BMP180;55725;42.758;26.702;2022-09-12T10:29:17;98606.00;;;27.10
68743;BMP180;55725;42.758;26.702;2022-09-12T10:30:58;98597.00;;;27.00
68743;BMP180;55725;42.758;26.702;2022-09-12T10:32:42;98592.00;;;25.70
68743;BMP180;55725;42.758;26.702;2022-09-12T10:34:34;98592.00;;;26.10
68743;BMP180;55725;42.758;26.702;2022-09-12T10:36:14;98594.00;;;26.50
68743;BMP180;55725;42.758;26.702;2022-09-12T10:39:36;98598.00;;;26.80
68743;BMP180;55725;42.758;26.702;2022-09-12T10:41:17;98600.00;;;27.00
68743;BMP180;55725;42.758;26.702;2022-09-12T10:42:58;98603.00;;;26.70
68743;BMP180;55725;42.758;26.702;2022-09-12T10:44:39;98593.00;;;27.20
68743;BMP180;55725;42.758;26.702;2022-09-12T10:46:31;98608.00;;;27.10
68743;BMP180;55725;42.758;26.702;2022-09-12T10:48:27;98592.00;;;26.30
68743;BMP180;55725;42.758;26.702;2022-09-12T10:52:23;98608.00;;;26.90
68743;BMP180;55725;42.758;26.702;2022-09-12T10:54:06;98617.00;;;26.40
68743;BMP180;55725;42.758;26.702;2022-09-12T10:55:55;98617.00;;;27.00
68743;BMP180;55725;42.758;26.702;2022-09-12T10:57:45;98614.00;;;26.90